Time;durP1;ratioP1;P1;durP2;ratioP2;P2;SDS_P1;SDS_P2;PMS_P1;PMS_P2;Temp;Humidity;BMP_temperature;BMP_pressure;BME280_temperature;BME280_humidity;BME280_pressure;Samples;Min_cycle;Max_cycle;Signal;HPM_P1;HPM_P2
2023/02/09 00:00:07;;;;;;;14.80;10.43;;;;;;;;;;5113900;28;20228;-61
2023/02/09 00:02:35;;;;;;;21.38;10.85;;;;;;;;;;5113733;28;20226;-62
2023/02/09 00:05:02;;;;;;;17.98;10.57;;;;;;;;;;5113735;28;20655;-61
2023/02/09 00:07:29;;;;;;;19.35;11.52;;;;;;;;;;5114071;28;20194;-62
2023/02/09 00:09:56;;;;;;;13.65;9.95;;;;;;;;;;5113788;28;20199;-62
2023/02/09 00:15:10;;;;;;;17.80;9.98;;;;;;;;;;5113652;28;20279;-61
2023/02/09 00:17:37;;;;;;;16.17;10.70;;;;;;;;;;5113657;28;20195;-61
2023/02/09 00:20:04;;;;;;;14.95;10.23;;;;;;;;;;5113667;28;20279;-62
2023/02/09 00:22:31;;;;;;;15.65;10.35;;;;;;;;;;5113641;28;20184;-62
2023/02/09 00:24:58;;;;;;;16.67;11.48;;;;;;;;;;5113479;28;20271;-61
2023/02/09 00:27:25;;;;;;;17.60;10.75;;;;;;;;;;5113423;28;20218;-61
2023/02/09 00:29:52;;;;;;;21.38;11.38;;;;;;;;;;5113650;28;20552;-61
2023/02/09 00:32:20;;;;;;;15.70;10.65;;;;;;;;;;5113581;28;20738;-61
2023/02/09 00:34:47;;;;;;;18.77;11.68;;;;;;;;;;5113457;28;20211;-61
2023/02/09 00:37:14;;;;;;;17.10;9.60;;;;;;;;;;5113344;28;20239;-61
2023/02/09 00:39:41;;;;;;;17.33;11.32;;;;;;;;;;5113339;28;20631;-62
2023/02/09 00:42:09;;;;;;;16.95;10.95;;;;;;;;;;5113179;28;20734;-62
2023/02/09 00:44:37;;;;;;;18.95;11.60;;;;;;;;;;5113289;28;20275;-61
2023/02/09 00:47:05;;;;;;;17.83;10.63;;;;;;;;;;5113409;28;20363;-61
2023/02/09 00:49:33;;;;;;;18.08;10.82;;;;;;;;;;5113185;28;20302;-61
2023/02/09 00:52:00;;;;;;;21.25;11.85;;;;;;;;;;5113217;28;20547;-61
2023/02/09 00:54:27;;;;;;;15.15;9.73;;;;;;;;;;5113020;28;20707;-61
2023/02/09 00:56:54;;;;;;;19.20;10.50;;;;;;;;;;5113319;28;20277;-61
2023/02/09 00:59:21;;;;;;;17.30;11.27;;;;;;;;;;5113244;28;20196;-61
2023/02/09 01:01:48;;;;;;;17.13;10.13;;;;;;;;;;5113361;28;20543;-61
2023/02/09 01:04:15;;;;;;;18.10;10.23;;;;;;;;;;5113119;28;20663;-61
2023/02/09 01:06:43;;;;;;;14.68;10.00;;;;;;;;;;5113085;28;20280;-61
2023/02/09 01:09:10;;;;;;;18.05;10.57;;;;;;;;;;5112941;28;20235;-61
2023/02/09 01:11:37;;;;;;;15.23;10.23;;;;;;;;;;5113208;28;20618;-61
2023/02/09 01:14:04;;;;;;;14.23;10.93;;;;;;;;;;5113171;28;20283;-61
2023/02/09 01:16:31;;;;;;;16.48;10.32;;;;;;;;;;5113084;28;20358;-61
2023/02/09 01:18:59;;;;;;;16.70;10.40;;;;;;;;;;5112971;28;20227;-61
2023/02/09 01:21:26;;;;;;;17.98;10.65;;;;;;;;;;5112783;28;20238;-61
2023/02/09 01:23:54;;;;;;;18.30;10.75;;;;;;;;;;5113041;28;20275;-61
2023/02/09 01:26:21;;;;;;;14.68;10.50;;;;;;;;;;5112977;28;20217;-61
2023/02/09 01:28:50;;;;;;;12.43;9.80;;;;;;;;;;5112786;28;20208;-62
2023/02/09 01:31:19;;;;;;;16.73;9.82;;;;;;;;;;5113174;28;20195;-62
2023/02/09 01:33:46;;;;;;;16.98;10.93;;;;;;;;;;5112961;28;20188;-61
2023/02/09 01:36:13;;;;;;;16.55;10.30;;;;;;;;;;5112903;28;20276;-61
2023/02/09 01:38:40;;;;;;;17.25;10.85;;;;;;;;;;5113062;28;20215;-62
2023/02/09 01:41:08;;;;;;;16.10;10.45;;;;;;;;;;5113036;28;20193;-62
2023/02/09 01:43:48;;;;;;;14.23;9.95;;;;;;;;;;5113005;28;20288;-61
2023/02/09 01:46:15;;;;;;;17.00;10.60;;;;;;;;;;5112795;28;20224;-61
2023/02/09 01:48:42;;;;;;;17.95;10.55;;;;;;;;;;5112557;28;20652;-61
2023/02/09 01:51:09;;;;;;;14.85;9.10;;;;;;;;;;5116424;28;20641;-62
2023/02/09 01:53:36;;;;;;;17.27;9.40;;;;;;;;;;5116415;28;20194;-61
2023/02/09 01:56:05;;;;;;;12.60;9.15;;;;;;;;;;5116431;28;20614;-61
2023/02/09 01:58:33;;;;;;;13.55;9.10;;;;;;;;;;5116708;28;20188;-62
2023/02/09 02:01:01;;;;;;;14.60;10.30;;;;;;;;;;5116089;28;20188;-62
2023/02/09 02:03:28;;;;;;;15.27;10.52;;;;;;;;;;5116008;28;20214;-62
2023/02/09 02:05:57;;;;;;;16.27;10.07;;;;;;;;;;5116301;28;20287;-61
2023/02/09 02:08:27;;;;;;;13.45;10.02;;;;;;;;;;5116072;28;20216;-61
2023/02/09 02:10:54;;;;;;;12.38;8.60;;;;;;;;;;5116214;28;20208;-61
2023/02/09 02:13:21;;;;;;;15.80;10.80;;;;;;;;;;5116037;28;20191;-61
2023/02/09 02:15:54;;;;;;;16.05;9.88;;;;;;;;;;5115810;28;20670;-61
2023/02/09 02:18:28;;;;;;;13.45;9.43;;;;;;;;;;5116100;28;20188;-61
2023/02/09 02:21:18;;;;;;;15.77;10.07;;;;;;;;;;5115969;28;20200;-61
2023/02/09 02:23:51;;;;;;;15.82;10.63;;;;;;;;;;5115848;28;20196;-61
2023/02/09 02:26:41;;;;;;;14.98;9.20;;;;;;;;;;5115922;28;20192;-61
2023/02/09 02:29:16;;;;;;;16.83;9.50;;;;;;;;;;5115709;28;20216;-61
2023/02/09 02:32:04;;;;;;;11.73;8.93;;;;;;;;;;5115728;28;20191;-61
2023/02/09 02:34:35;;;;;;;15.07;9.95;;;;;;;;;;5115585;28;20192;-61
2023/02/09 02:37:09;;;;;;;16.23;9.90;;;;;;;;;;5115736;28;20188;-61
2023/02/09 02:39:39;;;;;;;13.20;9.07;;;;;;;;;;5115674;28;20198;-61
2023/02/09 02:45:01;;;;;;;16.90;10.52;;;;;;;;;;5115214;28;20281;-61
2023/02/09 02:47:30;;;;;;;16.67;9.77;;;;;;;;;;5115555;28;20551;-61
2023/02/09 02:49:59;;;;;;;14.80;9.20;;;;;;;;;;5115345;28;20238;-61
2023/02/09 02:52:26;;;;;;;12.95;9.10;;;;;;;;;;5115400;28;20192;-61
2023/02/09 02:54:56;;;;;;;14.88;9.50;;;;;;;;;;5115481;28;20642;-62
2023/02/09 02:57:27;;;;;;;15.13;9.65;;;;;;;;;;5115108;28;20189;-61
2023/02/09 02:59:56;;;;;;;18.17;8.90;;;;;;;;;;5115183;28;20184;-61
2023/02/09 03:02:23;;;;;;;14.77;10.18;;;;;;;;;;5114176;28;20192;-62
2023/02/09 03:04:53;;;;;;;11.80;8.52;;;;;;;;;;5114855;28;20674;-61
2023/02/09 03:07:20;;;;;;;13.43;9.02;;;;;;;;;;5114947;28;20279;-61
2023/02/09 03:09:50;;;;;;;14.75;9.10;;;;;;;;;;5114712;28;20212;-61
2023/02/09 03:12:20;;;;;;;17.10;9.68;;;;;;;;;;5114956;28;20192;-61
2023/02/09 03:15:03;;;;;;;13.00;8.98;;;;;;;;;;5114854;28;20265;-61
2023/02/09 03:17:36;;;;;;;16.42;9.05;;;;;;;;;;5114774;28;20295;-61
2023/02/09 03:20:07;;;;;;;13.77;8.30;;;;;;;;;;5114697;28;20529;-61
2023/02/09 03:22:36;;;;;;;13.07;8.80;;;;;;;;;;5114605;28;20203;-61
2023/02/09 03:25:05;;;;;;;14.50;9.60;;;;;;;;;;5114615;28;20335;-61
2023/02/09 03:27:33;;;;;;;12.52;8.98;;;;;;;;;;5114711;28;20188;-61
2023/02/09 03:30:03;;;;;;;14.20;9.93;;;;;;;;;;5114474;28;20220;-61
2023/02/09 03:32:30;;;;;;;15.25;9.18;;;;;;;;;;5114430;28;20316;-62
2023/02/09 03:34:57;;;;;;;14.48;8.82;;;;;;;;;;5114240;28;20597;-61
2023/02/09 03:37:26;;;;;;;14.32;9.57;;;;;;;;;;5114510;28;20283;-61
2023/02/09 03:39:53;;;;;;;17.50;9.77;;;;;;;;;;5114416;28;20280;-61
2023/02/09 03:42:19;;;;;;;16.35;9.00;;;;;;;;;;5114312;28;20548;-61
2023/02/09 03:44:46;;;;;;;14.07;8.90;;;;;;;;;;5114145;28;20216;-61
2023/02/09 03:47:14;;;;;;;12.55;8.10;;;;;;;;;;5114083;28;20275;-61
2023/02/09 03:49:41;;;;;;;16.77;9.43;;;;;;;;;;5113912;28;20220;-61
2023/02/09 03:52:09;;;;;;;12.15;8.73;;;;;;;;;;5113884;28;20207;-61
2023/02/09 03:54:38;;;;;;;14.75;9.00;;;;;;;;;;5114090;28;20192;-61
2023/02/09 03:57:05;;;;;;;13.27;8.85;;;;;;;;;;5113953;28;20227;-62
2023/02/09 03:59:34;;;;;;;16.45;8.55;;;;;;;;;;5113893;28;20670;-61
2023/02/09 04:02:01;;;;;;;15.10;10.40;;;;;;;;;;5113972;28;20192;-61
2023/02/09 04:04:28;;;;;;;13.52;7.85;;;;;;;;;;5113982;28;20655;-62
2023/02/09 04:06:55;;;;;;;13.85;9.43;;;;;;;;;;5113887;28;20528;-61
2023/02/09 04:09:23;;;;;;;12.43;9.75;;;;;;;;;;5113717;28;20213;-61
2023/02/09 04:11:51;;;;;;;16.77;9.35;;;;;;;;;;5113382;28;20188;-61
2023/02/09 04:14:19;;;;;;;13.45;9.18;;;;;;;;;;5113629;28;20185;-61
2023/02/09 04:16:46;;;;;;;14.77;9.25;;;;;;;;;;5113900;28;20622;-62
2023/02/09 04:19:13;;;;;;;13.27;8.93;;;;;;;;;;5114018;28;20198;-61
2023/02/09 04:21:40;;;;;;;14.35;8.90;;;;;;;;;;5113695;28;20275;-61
2023/02/09 04:24:07;;;;;;;14.15;8.95;;;;;;;;;;5113537;28;20233;-61
2023/02/09 04:26:35;;;;;;;12.68;8.82;;;;;;;;;;5113387;28;20207;-61
2023/02/09 04:29:03;;;;;;;16.85;9.55;;;;;;;;;;5113274;28;20195;-61
2023/02/09 04:31:31;;;;;;;14.32;9.23;;;;;;;;;;5113635;28;20188;-61
2023/02/09 04:33:57;;;;;;;13.75;9.07;;;;;;;;;;5113592;28;20275;-61
2023/02/09 04:36:24;;;;;;;14.13;9.20;;;;;;;;;;5113583;28;20616;-61
2023/02/09 04:38:51;;;;;;;15.85;9.30;;;;;;;;;;5113340;28;20188;-61
2023/02/09 04:41:18;;;;;;;13.95;9.68;;;;;;;;;;5113368;28;20192;-61
2023/02/09 04:43:46;;;;;;;10.25;8.45;;;;;;;;;;5113253;28;20193;-61
2023/02/09 04:46:15;;;;;;;14.90;8.63;;;;;;;;;;5113222;28;20220;-61
2023/02/09 04:48:42;;;;;;;12.30;8.25;;;;;;;;;;5113394;28;20574;-61
2023/02/09 04:51:09;;;;;;;14.85;9.05;;;;;;;;;;5113548;28;20220;-61
2023/02/09 04:53:36;;;;;;;10.65;7.85;;;;;;;;;;5113223;28;20188;-61
2023/02/09 04:56:03;;;;;;;12.55;8.88;;;;;;;;;;5113156;28;20530;-61
2023/02/09 05:01:18;;;;;;;13.95;8.18;;;;;;;;;;5113245;28;20246;-61
2023/02/09 05:03:45;;;;;;;14.30;8.25;;;;;;;;;;5113136;28;20188;-61
2023/02/09 05:06:12;;;;;;;14.32;8.68;;;;;;;;;;5113096;28;20224;-61
2023/02/09 05:08:39;;;;;;;13.98;9.02;;;;;;;;;;5113026;28;20198;-62
2023/02/09 05:11:07;;;;;;;13.85;8.20;;;;;;;;;;5113126;28;20251;-61
2023/02/09 05:13:34;;;;;;;11.20;9.68;;;;;;;;;;5113128;28;20198;-61
2023/02/09 05:16:00;;;;;;;12.43;8.50;;;;;;;;;;5113035;28;20195;-61
2023/02/09 05:18:29;;;;;;;13.07;8.55;;;;;;;;;;5113006;28;20202;-61
2023/02/09 05:20:56;;;;;;;14.85;8.73;;;;;;;;;;5112847;28;20287;-62
2023/02/09 05:23:23;;;;;;;12.43;8.05;;;;;;;;;;5113134;28;20195;-61
2023/02/09 05:25:49;;;;;;;12.45;8.57;;;;;;;;;;5116325;28;20195;-61
2023/02/09 05:28:16;;;;;;;12.57;8.52;;;;;;;;;;5116873;28;20203;-61
2023/02/09 05:30:43;;;;;;;16.02;10.30;;;;;;;;;;5116710;28;20216;-61
2023/02/09 05:33:10;;;;;;;14.60;8.80;;;;;;;;;;5117047;28;20281;-61
2023/02/09 05:35:39;;;;;;;14.55;8.48;;;;;;;;;;5116553;28;20215;-61
2023/02/09 05:38:05;;;;;;;12.48;8.70;;;;;;;;;;5116836;28;20279;-61
2023/02/09 05:40:32;;;;;;;16.15;8.82;;;;;;;;;;5116767;28;20191;-61
2023/02/09 05:43:01;;;;;;;11.25;7.97;;;;;;;;;;5116783;28;20228;-61
2023/02/09 05:45:28;;;;;;;12.90;8.57;;;;;;;;;;5116354;28;20220;-60
2023/02/09 05:47:55;;;;;;;14.23;8.02;;;;;;;;;;5116642;28;20279;-61
2023/02/09 05:50:22;;;;;;;13.15;9.48;;;;;;;;;;5116120;28;20230;-61
2023/02/09 05:52:50;;;;;;;11.25;8.10;;;;;;;;;;5116458;28;20547;-61
2023/02/09 05:55:17;;;;;;;16.85;9.05;;;;;;;;;;5116384;28;20194;-61
2023/02/09 05:57:44;;;;;;;15.10;9.30;;;;;;;;;;5116322;28;20188;-61
2023/02/09 06:00:11;;;;;;;11.95;8.43;;;;;;;;;;5116191;28;20223;-61
2023/02/09 06:02:38;;;;;;;13.55;8.45;;;;;;;;;;5116130;28;20185;-60
2023/02/09 06:05:06;;;;;;;11.07;7.50;;;;;;;;;;5116015;28;20279;-61
2023/02/09 06:07:33;;;;;;;14.63;9.88;;;;;;;;;;5116170;28;20608;-61
2023/02/09 06:10:01;;;;;;;12.70;8.63;;;;;;;;;;5116060;28;20248;-61
2023/02/09 06:12:28;;;;;;;12.60;7.93;;;;;;;;;;5116026;28;20198;-60
2023/02/09 06:14:55;;;;;;;14.85;8.82;;;;;;;;;;5115725;28;20661;-61
2023/02/09 06:17:22;;;;;;;13.75;8.07;;;;;;;;;;5115739;28;20188;-61
2023/02/09 06:19:49;;;;;;;9.50;8.02;;;;;;;;;;5115867;28;20238;-60
2023/02/09 06:22:15;;;;;;;11.32;7.63;;;;;;;;;;5115706;28;20189;-61
2023/02/09 06:24:42;;;;;;;11.65;7.88;;;;;;;;;;5115717;28;20194;-61
2023/02/09 06:27:12;;;;;;;12.65;8.35;;;;;;;;;;5115728;28;20188;-61
2023/02/09 06:29:39;;;;;;;14.30;9.00;;;;;;;;;;5115339;28;20188;-61
2023/02/09 06:32:06;;;;;;;15.68;9.90;;;;;;;;;;5115349;28;20275;-61
2023/02/09 06:34:33;;;;;;;13.98;9.20;;;;;;;;;;5115096;28;20689;-61
2023/02/09 06:37:00;;;;;;;11.52;8.35;;;;;;;;;;5115022;28;20220;-61
2023/02/09 06:39:26;;;;;;;12.30;8.35;;;;;;;;;;5115238;28;20188;-60
2023/02/09 06:41:53;;;;;;;13.60;8.75;;;;;;;;;;5115339;28;20185;-60
2023/02/09 06:44:22;;;;;;;17.40;9.80;;;;;;;;;;5115124;28;20193;-61
2023/02/09 06:46:49;;;;;;;17.35;9.25;;;;;;;;;;5115353;28;20192;-61
2023/02/09 06:49:29;;;;;;;11.43;8.45;;;;;;;;;;5115651;28;20199;-63
2023/02/09 06:51:56;;;;;;;12.90;7.75;;;;;;;;;;5115178;28;20200;-61
2023/02/09 06:54:24;;;;;;;12.98;8.90;;;;;;;;;;5114973;28;20184;-60
2023/02/09 06:56:51;;;;;;;16.55;8.60;;;;;;;;;;5114862;28;20188;-61
2023/02/09 06:59:18;;;;;;;16.42;10.02;;;;;;;;;;5115074;28;20547;-61
2023/02/09 07:01:46;;;;;;;12.40;9.02;;;;;;;;;;5115000;28;20192;-61
2023/02/09 07:04:13;;;;;;;14.40;9.20;;;;;;;;;;5114995;28;20196;-61
2023/02/09 07:06:40;;;;;;;14.65;9.18;;;;;;;;;;5114695;28;20231;-61
2023/02/09 07:09:07;;;;;;;11.93;8.15;;;;;;;;;;5114686;28;20192;-61
2023/02/09 07:11:34;;;;;;;13.52;9.00;;;;;;;;;;5114330;28;20220;-61
2023/02/09 07:14:01;;;;;;;12.93;8.82;;;;;;;;;;5114737;28;20202;-60
2023/02/09 07:16:28;;;;;;;14.10;8.90;;;;;;;;;;5114703;28;20192;-61
2023/02/09 07:18:56;;;;;;;10.48;8.05;;;;;;;;;;5114682;28;20640;-61
2023/02/09 07:21:23;;;;;;;13.48;8.82;;;;;;;;;;5114511;28;20270;-61
2023/02/09 07:23:51;;;;;;;12.30;8.93;;;;;;;;;;5114340;28;20217;-61
2023/02/09 07:26:18;;;;;;;15.15;9.10;;;;;;;;;;5114256;28;20188;-61
2023/02/09 07:28:45;;;;;;;11.88;8.68;;;;;;;;;;5114447;28;20188;-61
2023/02/09 07:31:13;;;;;;;10.68;8.32;;;;;;;;;;5114284;28;20238;-61
2023/02/09 07:33:40;;;;;;;12.90;8.43;;;;;;;;;;5114449;28;20192;-61
2023/02/09 07:36:10;;;;;;;11.75;8.10;;;;;;;;;;5114280;28;20214;-61
2023/02/09 07:38:37;;;;;;;12.70;9.18;;;;;;;;;;5114126;28;20254;-61
2023/02/09 07:41:04;;;;;;;16.80;9.10;;;;;;;;;;5113986;28;20188;-60
2023/02/09 07:43:31;;;;;;;15.93;10.10;;;;;;;;;;5114191;28;20184;-61
2023/02/09 07:46:02;;;;;;;13.27;8.80;;;;;;;;;;5114010;28;20307;-61
2023/02/09 07:48:29;;;;;;;14.70;9.07;;;;;;;;;;5113328;28;20184;-61
2023/02/09 07:50:56;;;;;;;11.63;9.48;;;;;;;;;;5113748;28;20527;-60
2023/02/09 07:53:24;;;;;;;16.23;9.48;;;;;;;;;;5113709;28;20194;-60
2023/02/09 07:55:51;;;;;;;13.80;8.57;;;;;;;;;;5113872;28;20188;-61
2023/02/09 07:58:19;;;;;;;14.23;9.40;;;;;;;;;;5113914;28;20195;-61
2023/02/09 08:00:47;;;;;;;14.63;9.18;;;;;;;;;;5113839;28;20647;-61
2023/02/09 08:03:14;;;;;;;15.18;10.07;;;;;;;;;;5113709;28;20184;-61
2023/02/09 08:05:43;;;;;;;13.57;9.15;;;;;;;;;;5113621;28;20571;-61
2023/02/09 08:08:10;;;;;;;14.25;9.02;;;;;;;;;;5113811;28;20185;-61
2023/02/09 08:10:38;;;;;;;15.57;10.98;;;;;;;;;;5113605;28;20216;-60
2023/02/09 08:13:06;;;;;;;16.27;10.25;;;;;;;;;;5113752;28;20188;-61
2023/02/09 08:15:36;;;;;;;17.80;9.95;;;;;;;;;;5113739;28;20189;-61
2023/02/09 08:18:05;;;;;;;14.88;10.48;;;;;;;;;;5113321;28;20192;-61
2023/02/09 08:20:32;;;;;;;15.77;10.00;;;;;;;;;;5113224;28;20199;-61
2023/02/09 08:23:02;;;;;;;14.27;9.50;;;;;;;;;;5113510;28;20192;-61
2023/02/09 08:25:29;;;;;;;17.58;10.82;;;;;;;;;;5113810;28;20543;-61
2023/02/09 08:27:58;;;;;;;14.00;9.10;;;;;;;;;;5113246;28;20198;-61
2023/02/09 08:30:25;;;;;;;14.38;10.38;;;;;;;;;;5113134;28;20208;-61
2023/02/09 08:32:52;;;;;;;16.42;9.75;;;;;;;;;;5113096;28;20223;-61
2023/02/09 08:35:18;;;;;;;12.90;9.05;;;;;;;;;;5113387;28;20187;-61
2023/02/09 08:37:45;;;;;;;13.00;9.38;;;;;;;;;;5113190;28;20195;-61
2023/02/09 08:40:14;;;;;;;15.85;10.65;;;;;;;;;;5113186;28;20265;-61
2023/02/09 08:42:41;;;;;;;16.20;9.60;;;;;;;;;;5113254;28;20658;-61
2023/02/09 08:45:09;;;;;;;16.13;10.00;;;;;;;;;;5112901;28;20245;-61
2023/02/09 08:47:37;;;;;;;16.92;10.18;;;;;;;;;;5113273;28;20275;-61
2023/02/09 08:50:04;;;;;;;25.42;11.20;;;;;;;;;;5113161;28;20193;-61
2023/02/09 08:52:31;;;;;;;12.85;9.65;;;;;;;;;;5113042;28;20234;-61
2023/02/09 08:54:58;;;;;;;12.73;8.75;;;;;;;;;;5113077;28;20194;-61
2023/02/09 08:57:25;;;;;;;17.50;11.10;;;;;;;;;;5113181;28;20185;-61
2023/02/09 08:59:52;;;;;;;15.48;9.70;;;;;;;;;;5116561;28;20188;-61
2023/02/09 09:02:20;;;;;;;12.98;9.45;;;;;;;;;;5117101;28;20192;-61
2023/02/09 09:04:47;;;;;;;21.45;11.75;;;;;;;;;;5117376;28;20188;-61
2023/02/09 09:07:14;;;;;;;15.23;9.35;;;;;;;;;;5117297;28;20549;-61
2023/02/09 09:09:41;;;;;;;19.58;12.02;;;;;;;;;;5117080;28;20189;-61
2023/02/09 09:12:08;;;;;;;16.27;11.27;;;;;;;;;;5116825;28;20583;-61
2023/02/09 09:14:35;;;;;;;15.50;9.35;;;;;;;;;;5116660;28;20193;-61
2023/02/09 09:17:02;;;;;;;17.48;11.30;;;;;;;;;;5116991;28;20718;-61
2023/02/09 09:19:30;;;;;;;16.67;10.30;;;;;;;;;;5116543;28;20191;-61
2023/02/09 09:21:59;;;;;;;14.80;9.35;;;;;;;;;;5116733;28;20185;-61
2023/02/09 09:24:27;;;;;;;16.60;9.73;;;;;;;;;;5116774;28;20271;-61
2023/02/09 09:26:54;;;;;;;16.42;9.85;;;;;;;;;;5116453;28;20188;-61
2023/02/09 09:29:21;;;;;;;16.67;9.85;;;;;;;;;;5123283;27;20187;-61
2023/02/09 09:31:48;;;;;;;15.23;10.18;;;;;;;;;;5136181;27;20686;-61
2023/02/09 09:34:15;;;;;;;15.80;10.55;;;;;;;;;;5137292;27;20243;-61
2023/02/09 09:36:43;;;;;;;16.30;10.95;;;;;;;;;;5137068;27;20194;-61
2023/02/09 09:39:10;;;;;;;20.65;10.60;;;;;;;;;;5137044;27;20191;-61
2023/02/09 09:41:38;;;;;;;17.67;9.15;;;;;;;;;;5136901;27;20191;-61
2023/02/09 09:44:11;;;;;;;18.17;10.05;;;;;;;;;;5136980;27;20187;-62
2023/02/09 09:46:40;;;;;;;14.90;10.50;;;;;;;;;;5136717;27;20246;-61
2023/02/09 09:49:08;;;;;;;14.13;9.77;;;;;;;;;;5136911;27;20188;-61
2023/02/09 09:51:37;;;;;;;16.02;10.45;;;;;;;;;;5136747;27;20217;-61
2023/02/09 09:54:08;;;;;;;16.15;9.90;;;;;;;;;;5136549;27;20183;-61
2023/02/09 09:56:35;;;;;;;13.80;9.90;;;;;;;;;;5137042;27;20188;-62
2023/02/09 09:59:02;;;;;;;16.90;9.52;;;;;;;;;;5136787;27;20287;-61
2023/02/09 10:01:31;;;;;;;12.85;9.85;;;;;;;;;;5136739;27;20223;-61
2023/02/09 10:03:59;;;;;;;16.50;9.50;;;;;;;;;;5136612;27;20192;-61
2023/02/09 10:06:30;;;;;;;18.52;10.48;;;;;;;;;;5136412;27;20280;-62
2023/02/09 10:08:59;;;;;;;14.68;9.55;;;;;;;;;;5137046;27;20214;-61
2023/02/09 10:11:29;;;;;;;13.30;8.82;;;;;;;;;;5135644;27;20690;-61
2023/02/09 10:13:57;;;;;;;15.38;10.23;;;;;;;;;;5136501;27;20185;-61
2023/02/09 10:16:26;;;;;;;25.17;10.93;;;;;;;;;;5136312;27;20191;-62
2023/02/09 10:18:54;;;;;;;15.27;9.55;;;;;;;;;;5136241;27;20188;-61
2023/02/09 10:21:23;;;;;;;11.18;8.95;;;;;;;;;;5136149;27;20188;-61
2023/02/09 10:23:50;;;;;;;12.35;9.63;;;;;;;;;;5136219;27;20200;-61
2023/02/09 10:26:19;;;;;;;30.02;12.35;;;;;;;;;;5136149;27;20195;-61
2023/02/09 10:28:48;;;;;;;13.85;9.63;;;;;;;;;;5136138;27;20193;-61
2023/02/09 10:31:19;;;;;;;13.50;9.32;;;;;;;;;;5136010;27;20212;-62
2023/02/09 10:33:46;;;;;;;14.82;9.23;;;;;;;;;;5135946;27;20196;-62
2023/02/09 10:36:23;;;;;;;12.98;10.02;;;;;;;;;;5136140;27;20192;-62
2023/02/09 10:38:50;;;;;;;12.30;8.25;;;;;;;;;;5135970;27;20188;-62
2023/02/09 10:41:17;;;;;;;11.68;8.45;;;;;;;;;;5135873;27;20185;-61
2023/02/09 10:43:44;;;;;;;17.27;8.73;;;;;;;;;;5135688;27;20198;-62
2023/02/09 10:46:13;;;;;;;11.77;7.75;;;;;;;;;;5135551;27;20690;-62
2023/02/09 10:48:41;;;;;;;16.73;8.15;;;;;;;;;;5135589;27;20192;-62
2023/02/09 10:51:09;;;;;;;10.88;7.90;;;;;;;;;;5135702;27;20219;-62
2023/02/09 10:53:37;;;;;;;15.85;8.00;;;;;;;;;;5135764;27;20192;-61
2023/02/09 10:56:05;;;;;;;13.63;7.35;;;;;;;;;;5135528;27;20647;-61
2023/02/09 10:58:33;;;;;;;10.57;6.93;;;;;;;;;;5126483;27;20181;-61
2023/02/09 11:01:17;;;;;;;9.82;7.28;;;;;;;;;;5135524;27;20185;-61
2023/02/09 11:03:57;;;;;;;15.15;6.72;;;;;;;;;;5135583;27;20206;-62
2023/02/09 11:06:24;;;;;;;12.45;6.97;;;;;;;;;;5135418;27;20552;-61
2023/02/09 11:08:52;;;;;;;13.00;7.85;;;;;;;;;;5135357;27;20279;-61
2023/02/09 11:11:25;;;;;;;7.60;6.13;;;;;;;;;;5135090;27;20212;-61
2023/02/09 11:13:52;;;;;;;14.10;7.32;;;;;;;;;;5135094;27;20185;-61
2023/02/09 11:16:26;;;;;;;8.85;6.38;;;;;;;;;;5135113;27;20213;-62
2023/02/09 11:18:56;;;;;;;20.63;7.35;;;;;;;;;;5135133;27;20549;-61
2023/02/09 11:21:30;;;;;;;10.93;6.30;;;;;;;;;;5134452;27;20288;-62
2023/02/09 11:24:01;;;;;;;10.35;7.53;;;;;;;;;;5134677;27;20639;-62
2023/02/09 11:26:33;;;;;;;11.25;7.03;;;;;;;;;;5135052;27;20196;-61
2023/02/09 11:29:04;;;;;;;12.30;6.97;;;;;;;;;;5135040;27;20192;-61
2023/02/09 11:31:43;;;;;;;7.97;6.28;;;;;;;;;;5134826;27;20211;-61
2023/02/09 11:34:15;;;;;;;7.85;6.07;;;;;;;;;;5134977;27;20188;-61
2023/02/09 11:36:46;;;;;;;8.85;6.32;;;;;;;;;;5135064;27;20571;-62
2023/02/09 11:39:16;;;;;;;9.07;6.90;;;;;;;;;;5134740;27;20554;-62
2023/02/09 11:44:33;;;;;;;11.52;6.95;;;;;;;;;;5134162;27;20651;-61
2023/02/09 11:47:04;;;;;;;8.82;6.50;;;;;;;;;;5134476;27;20188;-61
2023/02/09 11:49:36;;;;;;;12.13;7.53;;;;;;;;;;5134614;27;20195;-62
2023/02/09 11:52:04;;;;;;;8.40;6.20;;;;;;;;;;5134856;27;20563;-61
2023/02/09 11:54:33;;;;;;;12.30;6.70;;;;;;;;;;5134333;27;20555;-61
2023/02/09 11:57:02;;;;;;;10.73;6.07;;;;;;;;;;5134181;27;20200;-61
2023/02/09 11:59:33;;;;;;;9.70;6.88;;;;;;;;;;5134502;27;20188;-61
2023/02/09 12:02:05;;;;;;;7.65;6.13;;;;;;;;;;5124968;27;20196;-61
2023/02/09 12:04:37;;;;;;;10.00;7.00;;;;;;;;;;5129094;27;20449;-60
2023/02/09 12:07:09;;;;;;;10.68;7.35;;;;;;;;;;5134294;27;20188;-61
2023/02/09 12:09:41;;;;;;;8.65;6.30;;;;;;;;;;5134065;27;20196;-61
2023/02/09 12:12:11;;;;;;;7.50;6.38;;;;;;;;;;5133575;27;20463;-60
2023/02/09 12:14:47;;;;;;;8.57;5.93;;;;;;;;;;5134143;27;20560;-61
2023/02/09 12:17:16;;;;;;;10.48;7.28;;;;;;;;;;5133391;27;20456;-60
2023/02/09 12:19:46;;;;;;;8.05;6.30;;;;;;;;;;5134077;27;20240;-60
2023/02/09 12:22:31;;;;;;;7.38;5.78;;;;;;;;;;5134188;27;20198;-60
2023/02/09 12:25:13;;;;;;;9.63;7.17;;;;;;;;;;5133245;27;20531;-60
2023/02/09 12:27:41;;;;;;;10.82;6.20;;;;;;;;;;5130248;27;20853;-61
2023/02/09 12:30:23;;;;;;;10.68;6.88;;;;;;;;;;5133657;27;20194;-60
2023/02/09 12:32:50;;;;;;;9.85;6.50;;;;;;;;;;5132760;27;20212;-60
2023/02/09 12:35:26;;;;;;;7.80;6.28;;;;;;;;;;5133848;27;20203;-60
2023/02/09 12:38:13;;;;;;;12.18;7.00;;;;;;;;;;5133912;27;20197;-60
2023/02/09 12:40:40;;;;;;;8.63;6.43;;;;;;;;;;5133599;27;20279;-60
2023/02/09 12:43:12;;;;;;;10.80;6.70;;;;;;;;;;5133901;27;20203;-60
2023/02/09 12:45:39;;;;;;;12.77;6.25;;;;;;;;;;5133539;28;20255;-60
2023/02/09 12:48:16;;;;;;;8.55;5.97;;;;;;;;;;5133278;28;20958;-60
2023/02/09 12:50:52;;;;;;;10.32;6.90;;;;;;;;;;5133056;28;20461;-60
2023/02/09 12:53:37;;;;;;;9.00;6.80;;;;;;;;;;5133283;28;20217;-61
2023/02/09 12:56:23;;;;;;;9.98;7.60;;;;;;;;;;5133620;28;20546;-61
2023/02/09 12:58:54;;;;;;;11.73;7.53;;;;;;;;;;5133656;28;20556;-61
2023/02/09 13:01:21;;;;;;;9.20;6.80;;;;;;;;;;5133453;28;20227;-61
2023/02/09 13:03:53;;;;;;;8.65;6.88;;;;;;;;;;5133469;28;20224;-61
2023/02/09 13:06:28;;;;;;;8.55;7.03;;;;;;;;;;5133458;28;20645;-60
2023/02/09 13:08:57;;;;;;;6.93;6.05;;;;;;;;;;5133530;28;20656;-60
2023/02/09 13:11:33;;;;;;;9.73;6.82;;;;;;;;;;5133508;28;20185;-61
2023/02/09 13:14:03;;;;;;;9.48;7.15;;;;;;;;;;5133442;28;20550;-60
2023/02/09 13:16:44;;;;;;;12.52;7.95;;;;;;;;;;5133575;28;20185;-60
2023/02/09 13:19:18;;;;;;;8.95;7.45;;;;;;;;;;5133459;28;20199;-60
2023/02/09 13:21:53;;;;;;;10.63;7.60;;;;;;;;;;5133414;28;20189;-60
2023/02/09 13:24:22;;;;;;;11.43;7.95;;;;;;;;;;5133382;28;20204;-61
2023/02/09 13:26:50;;;;;;;9.73;7.57;;;;;;;;;;5133526;28;20582;-60
2023/02/09 13:29:20;;;;;;;12.20;8.07;;;;;;;;;;5133387;28;20193;-60
2023/02/09 13:31:51;;;;;;;12.70;8.85;;;;;;;;;;5133098;28;20189;-60
2023/02/09 13:34:22;;;;;;;11.55;8.90;;;;;;;;;;5133215;28;20186;-60
2023/02/09 13:36:53;;;;;;;10.85;7.18;;;;;;;;;;5133173;28;20190;-60
2023/02/09 13:39:23;;;;;;;12.82;7.35;;;;;;;;;;5133379;28;20521;-60
2023/02/09 13:41:52;;;;;;;9.50;7.47;;;;;;;;;;5133264;28;20197;-61
2023/02/09 13:44:20;;;;;;;8.70;7.28;;;;;;;;;;5133027;27;20355;-60
2023/02/09 13:46:51;;;;;;;9.85;7.10;;;;;;;;;;5135951;27;20361;-60
2023/02/09 13:49:20;;;;;;;10.35;7.90;;;;;;;;;;5136789;27;20193;-61
2023/02/09 13:51:47;;;;;;;11.43;8.32;;;;;;;;;;5136684;27;20212;-61
2023/02/09 13:54:20;;;;;;;14.05;9.15;;;;;;;;;;5137105;27;20548;-60
2023/02/09 13:56:47;;;;;;;10.27;8.75;;;;;;;;;;5136785;27;20189;-60
2023/02/09 13:59:16;;;;;;;14.18;8.18;;;;;;;;;;5136847;27;20197;-61
2023/02/09 14:01:45;;;;;;;9.65;7.10;;;;;;;;;;5136539;27;20214;-60
2023/02/09 14:04:15;;;;;;;10.15;7.70;;;;;;;;;;5136389;27;20212;-61
2023/02/09 14:06:44;;;;;;;13.18;8.57;;;;;;;;;;5136808;27;20571;-60
2023/02/09 14:09:14;;;;;;;11.45;7.88;;;;;;;;;;5136573;27;20196;-60
2023/02/09 14:11:43;;;;;;;11.60;7.68;;;;;;;;;;5136749;27;20186;-60
2023/02/09 14:14:12;;;;;;;11.73;7.32;;;;;;;;;;5136169;27;20683;-61
2023/02/09 14:16:39;;;;;;;18.15;12.50;;;;;;;;;;5136159;27;20203;-60
2023/02/09 14:19:21;;;;;;;9.15;7.95;;;;;;;;;;5136426;27;20194;-61
2023/02/09 14:21:48;;;;;;;10.70;7.70;;;;;;;;;;5136454;27;20667;-61
2023/02/09 14:24:20;;;;;;;8.90;7.07;;;;;;;;;;5136209;27;20556;-61
2023/02/09 14:26:55;;;;;;;13.02;8.90;;;;;;;;;;5136141;27;20246;-61
2023/02/09 14:29:24;;;;;;;12.73;8.75;;;;;;;;;;5136373;27;20555;-60
2023/02/09 14:31:52;;;;;;;14.50;7.32;;;;;;;;;;5136115;27;20193;-60
2023/02/09 14:34:24;;;;;;;11.50;8.68;;;;;;;;;;5135941;27;20224;-60
2023/02/09 14:36:51;;;;;;;11.60;8.25;;;;;;;;;;5135961;27;20663;-61
2023/02/09 14:39:19;;;;;;;11.65;8.80;;;;;;;;;;5135722;27;20194;-60
2023/02/09 14:41:57;;;;;;;11.93;8.23;;;;;;;;;;5136086;27;20206;-60
2023/02/09 14:44:24;;;;;;;12.00;8.25;;;;;;;;;;5135761;27;20280;-61
2023/02/09 14:46:52;;;;;;;9.45;7.38;;;;;;;;;;5135814;27;20276;-60
2023/02/09 14:49:19;;;;;;;10.50;7.85;;;;;;;;;;5135915;27;20563;-61